sensor_id;sensor_type;location;lat;lon;timestamp;temperature;humidity
48988;DHT22;34799;51.440;-2.534;2023-03-01T00:01:22;6.00;99.90
48988;DHT22;34799;51.440;-2.534;2023-03-01T00:03:51;6.10;99.90
48988;DHT22;34799;51.440;-2.534;2023-03-01T00:06:19;6.50;99.90
48988;DHT22;34799;51.440;-2.534;2023-03-01T00:08:46;6.10;99.90
48988;DHT22;34799;51.440;-2.534;2023-03-01T00:13:44;6.40;99.90
48988;DHT22;34799;51.440;-2.534;2023-03-01T00:16:14;6.10;99.90
48988;DHT22;34799;51.440;-2.534;2023-03-01T00:18:42;6.10;99.90
48988;DHT22;34799;51.440;-2.534;2023-03-01T00:21:11;6.10;99.90
48988;DHT22;34799;51.440;-2.534;2023-03-01T00:23:38;6.10;99.90
48988;DHT22;34799;51.440;-2.534;2023-03-01T00:26:08;6.10;99.90
48988;DHT22;34799;51.440;-2.534;2023-03-01T00:28:39;6.00;99.90
48988;DHT22;34799;51.440;-2.534;2023-03-01T00:31:11;6.00;99.90
48988;DHT22;34799;51.440;-2.534;2023-03-01T00:33:39;6.00;99.90
48988;DHT22;34799;51.440;-2.534;2023-03-01T00:36:07;6.60;99.90
48988;DHT22;34799;51.440;-2.534;2023-03-01T00:38:36;6.00;99.90
48988;DHT22;34799;51.440;-2.534;2023-03-01T00:41:11;6.10;99.90
48988;DHT22;34799;51.440;-2.534;2023-03-01T00:43:38;6.10;99.90
48988;DHT22;34799;51.440;-2.534;2023-03-01T00:46:13;6.10;99.90
48988;DHT22;34799;51.440;-2.534;2023-03-01T00:48:42;6.10;99.90
48988;DHT22;34799;51.440;-2.534;2023-03-01T00:51:24;6.60;99.90
48988;DHT22;34799;51.440;-2.534;2023-03-01T00:53:54;6.10;99.90
48988;DHT22;34799;51.440;-2.534;2023-03-01T00:56:23;6.50;99.90
48988;DHT22;34799;51.440;-2.534;2023-03-01T00:58:51;6.10;99.90
48988;DHT22;34799;51.440;-2.534;2023-03-01T01:01:21;6.10;99.90
48988;DHT22;34799;51.440;-2.534;2023-03-01T01:04:01;6.10;99.90
48988;DHT22;34799;51.440;-2.534;2023-03-01T01:06:36;6.80;99.90
48988;DHT22;34799;51.440;-2.534;2023-03-01T01:09:06;6.30;99.90
48988;DHT22;34799;51.440;-2.534;2023-03-01T01:11:33;6.30;99.90
48988;DHT22;34799;51.440;-2.534;2023-03-01T01:14:02;6.00;99.90
48988;DHT22;34799;51.440;-2.534;2023-03-01T01:16:31;6.00;99.90
48988;DHT22;34799;51.440;-2.534;2023-03-01T01:18:58;6.00;99.90
48988;DHT22;34799;51.440;-2.534;2023-03-01T01:21:27;6.00;99.90
48988;DHT22;34799;51.440;-2.534;2023-03-01T01:23:55;6.10;99.90
48988;DHT22;34799;51.440;-2.534;2023-03-01T01:26:30;6.00;99.90
48988;DHT22;34799;51.440;-2.534;2023-03-01T01:28:59;6.00;99.90
48988;DHT22;34799;51.440;-2.534;2023-03-01T01:31:27;6.00;99.90
48988;DHT22;34799;51.440;-2.534;2023-03-01T01:33:57;6.70;99.90
48988;DHT22;34799;51.440;-2.534;2023-03-01T01:36:24;6.00;99.90
48988;DHT22;34799;51.440;-2.534;2023-03-01T01:38:53;6.00;99.90
48988;DHT22;34799;51.440;-2.534;2023-03-01T01:41:21;5.90;99.90
48988;DHT22;34799;51.440;-2.534;2023-03-01T01:44:10;6.40;99.90
48988;DHT22;34799;51.440;-2.534;2023-03-01T01:46:55;5.90;99.90
48988;DHT22;34799;51.440;-2.534;2023-03-01T01:52:02;5.90;99.90
48988;DHT22;34799;51.440;-2.534;2023-03-01T01:54:54;5.80;99.90
48988;DHT22;34799;51.440;-2.534;2023-03-01T01:57:32;5.90;99.90
48988;DHT22;34799;51.440;-2.534;2023-03-01T02:00:07;5.80;99.90
48988;DHT22;34799;51.440;-2.534;2023-03-01T02:02:44;5.80;99.90
48988;DHT22;34799;51.440;-2.534;2023-03-01T02:05:15;5.80;99.90
48988;DHT22;34799;51.440;-2.534;2023-03-01T02:07:45;5.80;99.90
48988;DHT22;34799;51.440;-2.534;2023-03-01T02:10:13;5.80;99.90
48988;DHT22;34799;51.440;-2.534;2023-03-01T02:12:40;5.90;99.90
48988;DHT22;34799;51.440;-2.534;2023-03-01T02:15:08;5.80;99.90
48988;DHT22;34799;51.440;-2.534;2023-03-01T02:17:35;5.80;99.90
48988;DHT22;34799;51.440;-2.534;2023-03-01T02:20:36;5.70;99.90
48988;DHT22;34799;51.440;-2.534;2023-03-01T02:23:07;5.70;99.90
48988;DHT22;34799;51.440;-2.534;2023-03-01T02:30:45;6.20;99.90
48988;DHT22;34799;51.440;-2.534;2023-03-01T02:33:34;5.60;99.90
48988;DHT22;34799;51.440;-2.534;2023-03-01T02:36:14;5.60;99.90
48988;DHT22;34799;51.440;-2.534;2023-03-01T02:38:42;5.60;99.90
48988;DHT22;34799;51.440;-2.534;2023-03-01T02:41:13;5.50;99.90
48988;DHT22;34799;51.440;-2.534;2023-03-01T02:43:42;5.50;99.90
48988;DHT22;34799;51.440;-2.534;2023-03-01T02:46:22;5.50;99.90
48988;DHT22;34799;51.440;-2.534;2023-03-01T02:48:54;5.40;99.90
48988;DHT22;34799;51.440;-2.534;2023-03-01T02:54:33;5.40;99.90
48988;DHT22;34799;51.440;-2.534;2023-03-01T02:57:03;5.40;99.90
48988;DHT22;34799;51.440;-2.534;2023-03-01T02:59:33;5.50;99.90
48988;DHT22;34799;51.440;-2.534;2023-03-01T03:02:20;5.90;99.90
48988;DHT22;34799;51.440;-2.534;2023-03-01T03:05:18;5.40;99.90
48988;DHT22;34799;51.440;-2.534;2023-03-01T03:07:47;5.40;99.90
48988;DHT22;34799;51.440;-2.534;2023-03-01T03:10:21;5.30;99.90
48988;DHT22;34799;51.440;-2.534;2023-03-01T03:12:53;5.40;99.90
48988;DHT22;34799;51.440;-2.534;2023-03-01T03:15:22;5.40;99.90
48988;DHT22;34799;51.440;-2.534;2023-03-01T03:17:50;5.30;99.90
48988;DHT22;34799;51.440;-2.534;2023-03-01T03:20:20;5.30;99.90
48988;DHT22;34799;51.440;-2.534;2023-03-01T03:22:50;5.30;99.90
48988;DHT22;34799;51.440;-2.534;2023-03-01T03:25:19;5.30;99.90
48988;DHT22;34799;51.440;-2.534;2023-03-01T03:27:48;5.30;99.90
48988;DHT22;34799;51.440;-2.534;2023-03-01T03:30:18;5.50;99.90
48988;DHT22;34799;51.440;-2.534;2023-03-01T03:32:47;5.30;99.90
48988;DHT22;34799;51.440;-2.534;2023-03-01T03:35:27;5.40;99.90
48988;DHT22;34799;51.440;-2.534;2023-03-01T03:37:58;5.50;99.90
48988;DHT22;34799;51.440;-2.534;2023-03-01T03:40:49;5.50;99.90
48988;DHT22;34799;51.440;-2.534;2023-03-01T03:43:19;5.40;99.90
48988;DHT22;34799;51.440;-2.534;2023-03-01T03:45:48;5.40;99.90
48988;DHT22;34799;51.440;-2.534;2023-03-01T03:48:17;6.20;99.90
48988;DHT22;34799;51.440;-2.534;2023-03-01T03:50:49;6.10;99.90
48988;DHT22;34799;51.440;-2.534;2023-03-01T03:53:18;5.50;99.90
48988;DHT22;34799;51.440;-2.534;2023-03-01T03:55:45;6.10;99.90
48988;DHT22;34799;51.440;-2.534;2023-03-01T03:58:16;6.00;99.90
48988;DHT22;34799;51.440;-2.534;2023-03-01T04:00:48;5.60;99.90
48988;DHT22;34799;51.440;-2.534;2023-03-01T04:03:16;5.60;99.90
48988;DHT22;34799;51.440;-2.534;2023-03-01T04:05:46;5.70;99.90
48988;DHT22;34799;51.440;-2.534;2023-03-01T04:08:14;5.70;99.90
48988;DHT22;34799;51.440;-2.534;2023-03-01T04:10:44;6.10;99.90
48988;DHT22;34799;51.440;-2.534;2023-03-01T04:13:14;5.80;99.90
48988;DHT22;34799;51.440;-2.534;2023-03-01T04:15:42;5.80;99.90
48988;DHT22;34799;51.440;-2.534;2023-03-01T04:18:15;5.80;99.90
48988;DHT22;34799;51.440;-2.534;2023-03-01T04:20:43;5.80;99.90
48988;DHT22;34799;51.440;-2.534;2023-03-01T04:23:15;6.40;99.90
48988;DHT22;34799;51.440;-2.534;2023-03-01T04:25:52;5.70;99.90
48988;DHT22;34799;51.440;-2.534;2023-03-01T04:28:28;5.80;99.90
48988;DHT22;34799;51.440;-2.534;2023-03-01T04:30:58;5.80;99.90
48988;DHT22;34799;51.440;-2.534;2023-03-01T04:33:27;5.80;99.90
48988;DHT22;34799;51.440;-2.534;2023-03-01T04:35:54;5.80;99.90
48988;DHT22;34799;51.440;-2.534;2023-03-01T04:38:21;7.40;99.90
48988;DHT22;34799;51.440;-2.534;2023-03-01T04:40:48;6.60;99.90
48988;DHT22;34799;51.440;-2.534;2023-03-01T04:43:15;6.50;99.90
48988;DHT22;34799;51.440;-2.534;2023-03-01T04:45:43;6.30;99.90
48988;DHT22;34799;51.440;-2.534;2023-03-01T04:48:10;5.80;99.90
48988;DHT22;34799;51.440;-2.534;2023-03-01T04:50:37;5.80;99.90
48988;DHT22;34799;51.440;-2.534;2023-03-01T04:53:05;6.10;99.90
48988;DHT22;34799;51.440;-2.534;2023-03-01T04:55:31;5.80;99.90
48988;DHT22;34799;51.440;-2.534;2023-03-01T04:58:00;5.80;99.90
48988;DHT22;34799;51.440;-2.534;2023-03-01T05:00:28;5.90;99.90
48988;DHT22;34799;51.440;-2.534;2023-03-01T05:03:00;5.90;99.90
48988;DHT22;34799;51.440;-2.534;2023-03-01T05:05:32;6.40;99.90
48988;DHT22;34799;51.440;-2.534;2023-03-01T05:08:01;5.80;99.90
48988;DHT22;34799;51.440;-2.534;2023-03-01T05:10:30;5.80;99.90
48988;DHT22;34799;51.440;-2.534;2023-03-01T05:12:59;5.80;99.90
48988;DHT22;34799;51.440;-2.534;2023-03-01T05:15:27;5.80;99.90
48988;DHT22;34799;51.440;-2.534;2023-03-01T05:17:59;5.80;99.90
48988;DHT22;34799;51.440;-2.534;2023-03-01T05:20:27;5.80;99.90
48988;DHT22;34799;51.440;-2.534;2023-03-01T05:22:57;5.80;99.90
48988;DHT22;34799;51.440;-2.534;2023-03-01T05:25:34;5.80;99.90
48988;DHT22;34799;51.440;-2.534;2023-03-01T05:28:02;5.80;99.90
48988;DHT22;34799;51.440;-2.534;2023-03-01T05:30:32;5.80;99.90
48988;DHT22;34799;51.440;-2.534;2023-03-01T05:33:01;5.90;99.90
48988;DHT22;34799;51.440;-2.534;2023-03-01T05:35:28;5.80;99.90
48988;DHT22;34799;51.440;-2.534;2023-03-01T05:37:56;6.40;99.90
48988;DHT22;34799;51.440;-2.534;2023-03-01T05:40:23;5.90;99.90
48988;DHT22;34799;51.440;-2.534;2023-03-01T05:42:54;5.80;99.90
48988;DHT22;34799;51.440;-2.534;2023-03-01T05:45:23;5.80;99.90
48988;DHT22;34799;51.440;-2.534;2023-03-01T05:47:50;5.80;99.90
48988;DHT22;34799;51.440;-2.534;2023-03-01T05:50:24;5.70;99.90
48988;DHT22;34799;51.440;-2.534;2023-03-01T05:53:06;5.80;99.90
48988;DHT22;34799;51.440;-2.534;2023-03-01T05:55:35;5.80;99.90
48988;DHT22;34799;51.440;-2.534;2023-03-01T05:58:05;6.00;99.90
48988;DHT22;34799;51.440;-2.534;2023-03-01T06:00:33;6.80;99.90
48988;DHT22;34799;51.440;-2.534;2023-03-01T06:03:01;5.70;99.90
48988;DHT22;34799;51.440;-2.534;2023-03-01T06:05:28;6.10;99.90
48988;DHT22;34799;51.440;-2.534;2023-03-01T06:07:59;5.70;99.90
48988;DHT22;34799;51.440;-2.534;2023-03-01T06:10:26;5.80;99.90
48988;DHT22;34799;51.440;-2.534;2023-03-01T06:12:53;6.20;99.90
48988;DHT22;34799;51.440;-2.534;2023-03-01T06:15:21;5.70;99.90
48988;DHT22;34799;51.440;-2.534;2023-03-01T06:17:48;5.60;99.90
48988;DHT22;34799;51.440;-2.534;2023-03-01T06:20:21;5.60;99.90
48988;DHT22;34799;51.440;-2.534;2023-03-01T06:22:49;5.90;99.90
48988;DHT22;34799;51.440;-2.534;2023-03-01T06:25:21;5.60;99.90
48988;DHT22;34799;51.440;-2.534;2023-03-01T06:27:48;5.60;99.90
48988;DHT22;34799;51.440;-2.534;2023-03-01T06:30:17;5.50;99.90
48988;DHT22;34799;51.440;-2.534;2023-03-01T06:32:45;5.50;99.90
48988;DHT22;34799;51.440;-2.534;2023-03-01T06:35:14;5.50;99.90
48988;DHT22;34799;51.440;-2.534;2023-03-01T06:37:45;6.10;99.90
48988;DHT22;34799;51.440;-2.534;2023-03-01T06:40:13;5.50;99.90
48988;DHT22;34799;51.440;-2.534;2023-03-01T06:42:42;5.40;99.90
48988;DHT22;34799;51.440;-2.534;2023-03-01T06:45:11;5.40;99.90
48988;DHT22;34799;51.440;-2.534;2023-03-01T06:47:39;5.40;99.90
48988;DHT22;34799;51.440;-2.534;2023-03-01T06:50:06;5.40;99.90
48988;DHT22;34799;51.440;-2.534;2023-03-01T06:52:33;5.30;99.90
48988;DHT22;34799;51.440;-2.534;2023-03-01T06:55:00;5.30;99.90
48988;DHT22;34799;51.440;-2.534;2023-03-01T06:57:27;5.30;99.90
48988;DHT22;34799;51.440;-2.534;2023-03-01T06:59:55;5.60;99.90
48988;DHT22;34799;51.440;-2.534;2023-03-01T07:02:23;5.40;99.90
48988;DHT22;34799;51.440;-2.534;2023-03-01T07:04:51;5.40;99.90
48988;DHT22;34799;51.440;-2.534;2023-03-01T07:07:18;6.40;99.90
48988;DHT22;34799;51.440;-2.534;2023-03-01T07:09:46;5.50;99.90
48988;DHT22;34799;51.440;-2.534;2023-03-01T07:12:16;6.60;99.90
48988;DHT22;34799;51.440;-2.534;2023-03-01T07:14:44;5.50;99.90
48988;DHT22;34799;51.440;-2.534;2023-03-01T07:17:11;5.50;99.90
48988;DHT22;34799;51.440;-2.534;2023-03-01T07:19:38;6.30;99.90
48988;DHT22;34799;51.440;-2.534;2023-03-01T07:22:05;5.60;99.90
48988;DHT22;34799;51.440;-2.534;2023-03-01T07:24:34;5.50;99.90
48988;DHT22;34799;51.440;-2.534;2023-03-01T07:27:02;5.50;99.90
48988;DHT22;34799;51.440;-2.534;2023-03-01T07:29:29;5.50;99.90
48988;DHT22;34799;51.440;-2.534;2023-03-01T07:31:56;5.60;99.90
48988;DHT22;34799;51.440;-2.534;2023-03-01T07:34:23;5.70;99.90
48988;DHT22;34799;51.440;-2.534;2023-03-01T07:36:50;5.70;99.90
48988;DHT22;34799;51.440;-2.534;2023-03-01T07:39:18;6.10;99.90
48988;DHT22;34799;51.440;-2.534;2023-03-01T07:41:45;5.70;99.90
48988;DHT22;34799;51.440;-2.534;2023-03-01T07:44:12;5.80;99.90
48988;DHT22;34799;51.440;-2.534;2023-03-01T07:46:39;6.10;99.90
48988;DHT22;34799;51.440;-2.534;2023-03-01T07:49:06;5.80;99.90
48988;DHT22;34799;51.440;-2.534;2023-03-01T07:51:37;5.70;99.90
48988;DHT22;34799;51.440;-2.534;2023-03-01T07:54:04;6.00;99.90
48988;DHT22;34799;51.440;-2.534;2023-03-01T07:56:31;6.20;99.90
48988;DHT22;34799;51.440;-2.534;2023-03-01T07:58:59;5.70;99.90
48988;DHT22;34799;51.440;-2.534;2023-03-01T08:01:26;5.80;99.90
48988;DHT22;34799;51.440;-2.534;2023-03-01T08:03:53;5.80;99.90
48988;DHT22;34799;51.440;-2.534;2023-03-01T08:06:22;6.40;99.90
48988;DHT22;34799;51.440;-2.534;2023-03-01T08:08:49;5.80;99.90
48988;DHT22;34799;51.440;-2.534;2023-03-01T08:11:16;5.70;99.90
48988;DHT22;34799;51.440;-2.534;2023-03-01T08:13:43;5.70;99.90
48988;DHT22;34799;51.440;-2.534;2023-03-01T08:16:13;5.60;99.90
48988;DHT22;34799;51.440;-2.534;2023-03-01T08:18:42;5.60;99.90
48988;DHT22;34799;51.440;-2.534;2023-03-01T08:21:12;5.70;99.90
48988;DHT22;34799;51.440;-2.534;2023-03-01T08:23:42;5.70;99.90
48988;DHT22;34799;51.440;-2.534;2023-03-01T08:26:11;6.60;99.90
48988;DHT22;34799;51.440;-2.534;2023-03-01T08:28:39;5.80;99.90
48988;DHT22;34799;51.440;-2.534;2023-03-01T08:33:48;5.90;99.90
48988;DHT22;34799;51.440;-2.534;2023-03-01T08:36:18;5.90;99.90
48988;DHT22;34799;51.440;-2.534;2023-03-01T08:38:46;5.90;99.90
48988;DHT22;34799;51.440;-2.534;2023-03-01T08:41:13;6.00;99.90
48988;DHT22;34799;51.440;-2.534;2023-03-01T08:43:41;6.10;99.90
48988;DHT22;34799;51.440;-2.534;2023-03-01T08:46:09;6.20;99.90
48988;DHT22;34799;51.440;-2.534;2023-03-01T08:48:36;6.30;99.90
48988;DHT22;34799;51.440;-2.534;2023-03-01T08:51:16;6.30;99.90
48988;DHT22;34799;51.440;-2.534;2023-03-01T08:53:46;6.30;99.90
48988;DHT22;34799;51.440;-2.534;2023-03-01T08:56:15;6.20;99.90
48988;DHT22;34799;51.440;-2.534;2023-03-01T08:58:46;6.20;99.90
48988;DHT22;34799;51.440;-2.534;2023-03-01T09:01:18;6.10;99.90
48988;DHT22;34799;51.440;-2.534;2023-03-01T09:03:46;6.30;99.90
48988;DHT22;34799;51.440;-2.534;2023-03-01T09:06:15;6.00;99.90
48988;DHT22;34799;51.440;-2.534;2023-03-01T09:08:44;6.10;99.90
48988;DHT22;34799;51.440;-2.534;2023-03-01T09:11:15;6.10;99.90
48988;DHT22;34799;51.440;-2.534;2023-03-01T09:13:44;6.10;99.90
48988;DHT22;34799;51.440;-2.534;2023-03-01T09:16:13;6.20;99.90
48988;DHT22;34799;51.440;-2.534;2023-03-01T09:18:42;6.20;99.90
48988;DHT22;34799;51.440;-2.534;2023-03-01T09:21:11;6.30;99.90
48988;DHT22;34799;51.440;-2.534;2023-03-01T09:23:41;6.40;99.90
48988;DHT22;34799;51.440;-2.534;2023-03-01T09:26:15;6.50;99.90
48988;DHT22;34799;51.440;-2.534;2023-03-01T09:28:45;6.60;99.90
48988;DHT22;34799;51.440;-2.534;2023-03-01T09:31:13;6.70;99.90
48988;DHT22;34799;51.440;-2.534;2023-03-01T09:33:41;7.50;99.90
48988;DHT22;34799;51.440;-2.534;2023-03-01T09:36:12;7.60;99.90
48988;DHT22;34799;51.440;-2.534;2023-03-01T09:38:40;7.00;99.90
48988;DHT22;34799;51.440;-2.534;2023-03-01T09:44:01;6.80;99.90
48988;DHT22;34799;51.440;-2.534;2023-03-01T09:46:38;6.90;99.90
48988;DHT22;34799;51.440;-2.534;2023-03-01T09:49:24;6.80;99.90
48988;DHT22;34799;51.440;-2.534;2023-03-01T09:54:41;6.60;99.90
48988;DHT22;34799;51.440;-2.534;2023-03-01T09:58:11;6.70;99.90
48988;DHT22;34799;51.440;-2.534;2023-03-01T10:05:47;6.90;99.90
48988;DHT22;34799;51.440;-2.534;2023-03-01T10:09:29;7.00;99.90
48988;DHT22;34799;51.440;-2.534;2023-03-01T10:11:41;7.00;99.90
48988;DHT22;34799;51.440;-2.534;2023-03-01T10:14:17;7.30;99.90
48988;DHT22;34799;51.440;-2.534;2023-03-01T10:16:50;6.80;99.90
48988;DHT22;34799;51.440;-2.534;2023-03-01T10:19:39;6.80;99.90
48988;DHT22;34799;51.440;-2.534;2023-03-01T10:22:24;6.80;99.90
48988;DHT22;34799;51.440;-2.534;2023-03-01T10:24:57;6.70;99.90
48988;DHT22;34799;51.440;-2.534;2023-03-01T10:27:34;6.90;99.90
48988;DHT22;34799;51.440;-2.534;2023-03-01T10:30:32;7.00;99.90
48988;DHT22;34799;51.440;-2.534;2023-03-01T10:33:01;7.10;99.90
48988;DHT22;34799;51.440;-2.534;2023-03-01T10:35:33;7.20;99.90
48988;DHT22;34799;51.440;-2.534;2023-03-01T10:38:07;7.30;99.90
48988;DHT22;34799;51.440;-2.534;2023-03-01T10:40:59;7.30;99.90
48988;DHT22;34799;51.440;-2.534;2023-03-01T10:43:46;7.20;99.90
48988;DHT22;34799;51.440;-2.534;2023-03-01T10:46:25;7.20;99.90
48988;DHT22;34799;51.440;-2.534;2023-03-01T10:49:15;7.30;99.90
48988;DHT22;34799;51.440;-2.534;2023-03-01T10:51:46;7.30;99.90
48988;DHT22;34799;51.440;-2.534;2023-03-01T10:56:54;7.20;99.90
48988;DHT22;34799;51.440;-2.534;2023-03-01T11:05:15;7.10;99.90
48988;DHT22;34799;51.440;-2.534;2023-03-01T11:10:21;7.20;99.90
48988;DHT22;34799;51.440;-2.534;2023-03-01T11:12:48;7.30;99.90
48988;DHT22;34799;51.440;-2.534;2023-03-01T11:15:26;7.30;99.90
48988;DHT22;34799;51.440;-2.534;2023-03-01T11:17:56;7.40;99.90
48988;DHT22;34799;51.440;-2.534;2023-03-01T11:20:36;7.40;99.90
48988;DHT22;34799;51.440;-2.534;2023-03-01T11:23:12;7.80;99.90
48988;DHT22;34799;51.440;-2.534;2023-03-01T11:25:46;7.40;99.90
48988;DHT22;34799;51.440;-2.534;2023-03-01T11:28:17;7.50;99.90
48988;DHT22;34799;51.440;-2.534;2023-03-01T11:30:54;7.40;99.90
48988;DHT22;34799;51.440;-2.534;2023-03-01T11:33:39;8.10;99.90
48988;DHT22;34799;51.440;-2.534;2023-03-01T11:36:31;7.30;99.90
48988;DHT22;34799;51.440;-2.534;2023-03-01T11:44:54;7.30;99.90
48988;DHT22;34799;51.440;-2.534;2023-03-01T11:52:56;7.70;99.90
48988;DHT22;34799;51.440;-2.534;2023-03-01T11:58:54;7.30;99.90
48988;DHT22;34799;51.440;-2.534;2023-03-01T12:07:45;7.60;99.90
48988;DHT22;34799;51.440;-2.534;2023-03-01T12:18:39;7.70;99.90
48988;DHT22;34799;51.440;-2.534;2023-03-01T12:29:26;8.40;99.90
48988;DHT22;34799;51.440;-2.534;2023-03-01T12:37:38;8.40;99.90
48988;DHT22;34799;51.440;-2.534;2023-03-01T12:43:33;8.20;99.90
48988;DHT22;34799;51.440;-2.534;2023-03-01T12:51:24;8.00;99.90
48988;DHT22;34799;51.440;-2.534;2023-03-01T12:53:55;8.00;99.90
48988;DHT22;34799;51.440;-2.534;2023-03-01T12:56:28;8.00;99.90
48988;DHT22;34799;51.440;-2.534;2023-03-01T12:59:05;8.30;99.90
48988;DHT22;34799;51.440;-2.534;2023-03-01T13:02:03;8.00;99.90
48988;DHT22;34799;51.440;-2.534;2023-03-01T13:04:59;8.00;99.90
48988;DHT22;34799;51.440;-2.534;2023-03-01T13:07:41;8.30;99.90
48988;DHT22;34799;51.440;-2.534;2023-03-01T13:10:33;7.90;99.90
48988;DHT22;34799;51.440;-2.534;2023-03-01T13:13:23;8.10;99.90
48988;DHT22;34799;51.440;-2.534;2023-03-01T13:15:51;7.90;99.90
48988;DHT22;34799;51.440;-2.534;2023-03-01T13:20:51;8.30;99.90
48988;DHT22;34799;51.440;-2.534;2023-03-01T13:26:00;7.50;99.90
48988;DHT22;34799;51.440;-2.534;2023-03-01T13:31:08;7.50;99.90
48988;DHT22;34799;51.440;-2.534;2023-03-01T13:39:04;7.70;99.90
48988;DHT22;34799;51.440;-2.534;2023-03-01T13:44:31;7.80;99.90
48988;DHT22;34799;51.440;-2.534;2023-03-01T13:47:05;7.90;99.90
48988;DHT22;34799;51.440;-2.534;2023-03-01T13:50:00;7.90;99.90
48988;DHT22;34799;51.440;-2.534;2023-03-01T13:52:49;7.90;99.90
48988;DHT22;34799;51.440;-2.534;2023-03-01T13:57:50;8.00;99.90
48988;DHT22;34799;51.440;-2.534;2023-03-01T14:00:36;8.00;99.90
48988;DHT22;34799;51.440;-2.534;2023-03-01T14:03:11;7.90;99.90
48988;DHT22;34799;51.440;-2.534;2023-03-01T14:05:40;7.90;99.90
48988;DHT22;34799;51.440;-2.534;2023-03-01T14:08:23;7.80;99.90
48988;DHT22;34799;51.440;-2.534;2023-03-01T14:19:00;7.50;99.90
48988;DHT22;34799;51.440;-2.534;2023-03-01T14:21:31;7.60;99.90
48988;DHT22;34799;51.440;-2.534;2023-03-01T14:24:00;7.80;99.90
48988;DHT22;34799;51.440;-2.534;2023-03-01T14:26:27;7.60;99.90
48988;DHT22;34799;51.440;-2.534;2023-03-01T14:28:56;7.60;99.90
48988;DHT22;34799;51.440;-2.534;2023-03-01T14:31:44;8.10;99.90
48988;DHT22;34799;51.440;-2.534;2023-03-01T14:34:22;7.50;99.90
48988;DHT22;34799;51.440;-2.534;2023-03-01T14:36:49;7.60;99.90
48988;DHT22;34799;51.440;-2.534;2023-03-01T14:39:19;7.90;99.90
48988;DHT22;34799;51.440;-2.534;2023-03-01T14:41:47;8.00;99.90
48988;DHT22;34799;51.440;-2.534;2023-03-01T14:44:19;8.10;99.90
48988;DHT22;34799;51.440;-2.534;2023-03-01T14:46:53;8.50;99.90
48988;DHT22;34799;51.440;-2.534;2023-03-01T14:49:25;8.30;99.90
48988;DHT22;34799;51.440;-2.534;2023-03-01T14:52:06;8.00;99.90
48988;DHT22;34799;51.440;-2.534;2023-03-01T14:54:46;7.90;99.90
48988;DHT22;34799;51.440;-2.534;2023-03-01T14:57:16;7.90;99.90
48988;DHT22;34799;51.440;-2.534;2023-03-01T14:59:45;8.00;99.90
48988;DHT22;34799;51.440;-2.534;2023-03-01T15:02:19;8.10;99.90
48988;DHT22;34799;51.440;-2.534;2023-03-01T15:04:56;8.00;99.90
48988;DHT22;34799;51.440;-2.534;2023-03-01T15:07:30;8.30;99.90
48988;DHT22;34799;51.440;-2.534;2023-03-01T15:10:03;8.10;99.90
48988;DHT22;34799;51.440;-2.534;2023-03-01T15:14:58;7.90;99.90
48988;DHT22;34799;51.440;-2.534;2023-03-01T15:20:03;8.70;99.90
48988;DHT22;34799;51.440;-2.534;2023-03-01T15:22:32;7.70;99.90
48988;DHT22;34799;51.440;-2.534;2023-03-01T15:24:59;7.70;99.90
48988;DHT22;34799;51.440;-2.534;2023-03-01T15:27:27;8.10;99.90
48988;DHT22;34799;51.440;-2.534;2023-03-01T15:29:59;8.30;99.90
48988;DHT22;34799;51.440;-2.534;2023-03-01T15:32:30;7.80;99.90
48988;DHT22;34799;51.440;-2.534;2023-03-01T15:36:02;8.20;99.90
48988;DHT22;34799;51.440;-2.534;2023-03-01T15:38:50;7.80;99.90
48988;DHT22;34799;51.440;-2.534;2023-03-01T15:41:26;7.80;99.90
48988;DHT22;34799;51.440;-2.534;2023-03-01T15:43:54;7.70;99.90
48988;DHT22;34799;51.440;-2.534;2023-03-01T15:48:56;7.90;99.90
48988;DHT22;34799;51.440;-2.534;2023-03-01T15:51:36;8.00;99.90
48988;DHT22;34799;51.440;-2.534;2023-03-01T15:54:10;7.90;99.90
48988;DHT22;34799;51.440;-2.534;2023-03-01T15:56:39;8.00;99.90
48988;DHT22;34799;51.440;-2.534;2023-03-01T15:59:10;8.20;99.90
48988;DHT22;34799;51.440;-2.534;2023-03-01T16:01:43;8.20;99.90
48988;DHT22;34799;51.440;-2.534;2023-03-01T16:04:13;8.20;99.90
48988;DHT22;34799;51.440;-2.534;2023-03-01T16:06:47;8.60;99.90
48988;DHT22;34799;51.440;-2.534;2023-03-01T16:09:22;8.10;99.90
48988;DHT22;34799;51.440;-2.534;2023-03-01T16:11:51;8.10;99.90
48988;DHT22;34799;51.440;-2.534;2023-03-01T16:14:19;8.00;99.90
48988;DHT22;34799;51.440;-2.534;2023-03-01T16:16:48;8.50;99.90
48988;DHT22;34799;51.440;-2.534;2023-03-01T16:19:15;8.10;99.90
48988;DHT22;34799;51.440;-2.534;2023-03-01T16:21:43;8.20;99.90
48988;DHT22;34799;51.440;-2.534;2023-03-01T16:24:15;8.50;99.90
48988;DHT22;34799;51.440;-2.534;2023-03-01T16:26:43;8.50;99.90
48988;DHT22;34799;51.440;-2.534;2023-03-01T16:29:10;8.20;99.90
48988;DHT22;34799;51.440;-2.534;2023-03-01T16:31:37;7.90;99.90
48988;DHT22;34799;51.440;-2.534;2023-03-01T16:34:05;7.80;99.90
48988;DHT22;34799;51.440;-2.534;2023-03-01T16:36:32;7.80;99.90
48988;DHT22;34799;51.440;-2.534;2023-03-01T16:39:00;7.80;99.90
48988;DHT22;34799;51.440;-2.534;2023-03-01T16:41:27;7.80;99.90
48988;DHT22;34799;51.440;-2.534;2023-03-01T16:43:55;7.80;99.90
48988;DHT22;34799;51.440;-2.534;2023-03-01T16:46:27;8.30;99.90
48988;DHT22;34799;51.440;-2.534;2023-03-01T16:48:55;7.90;99.90
48988;DHT22;34799;51.440;-2.534;2023-03-01T16:51:29;8.10;99.90
48988;DHT22;34799;51.440;-2.534;2023-03-01T16:53:58;9.90;99.90
48988;DHT22;34799;51.440;-2.534;2023-03-01T16:56:29;7.60;99.90
48988;DHT22;34799;51.440;-2.534;2023-03-01T16:59:04;8.20;99.90
48988;DHT22;34799;51.440;-2.534;2023-03-01T17:01:34;7.90;99.90
48988;DHT22;34799;51.440;-2.534;2023-03-01T17:04:10;9.40;99.90
48988;DHT22;34799;51.440;-2.534;2023-03-01T17:06:45;8.00;99.90
48988;DHT22;34799;51.440;-2.534;2023-03-01T17:09:15;7.70;99.90
48988;DHT22;34799;51.440;-2.534;2023-03-01T17:11:44;8.00;99.90
48988;DHT22;34799;51.440;-2.534;2023-03-01T17:14:18;8.10;99.90
48988;DHT22;34799;51.440;-2.534;2023-03-01T17:16:46;8.30;99.90
48988;DHT22;34799;51.440;-2.534;2023-03-01T17:19:15;8.00;99.90
48988;DHT22;34799;51.440;-2.534;2023-03-01T17:21:55;7.80;99.90
48988;DHT22;34799;51.440;-2.534;2023-03-01T17:24:27;9.40;99.90
48988;DHT22;34799;51.440;-2.534;2023-03-01T17:26:56;7.90;99.90
48988;DHT22;34799;51.440;-2.534;2023-03-01T17:29:32;7.90;99.90
48988;DHT22;34799;51.440;-2.534;2023-03-01T17:32:00;7.80;99.90
48988;DHT22;34799;51.440;-2.534;2023-03-01T17:34:32;8.40;99.90
48988;DHT22;34799;51.440;-2.534;2023-03-01T17:37:07;8.00;99.90
48988;DHT22;34799;51.440;-2.534;2023-03-01T17:39:35;9.30;99.90
48988;DHT22;34799;51.440;-2.534;2023-03-01T17:42:04;8.00;99.90
48988;DHT22;34799;51.440;-2.534;2023-03-01T17:44:33;7.80;99.90
48988;DHT22;34799;51.440;-2.534;2023-03-01T17:47:10;9.00;99.90
48988;DHT22;34799;51.440;-2.534;2023-03-01T17:49:37;8.00;99.90
48988;DHT22;34799;51.440;-2.534;2023-03-01T17:52:05;7.70;99.90
48988;DHT22;34799;51.440;-2.534;2023-03-01T17:54:40;9.20;99.90
48988;DHT22;34799;51.440;-2.534;2023-03-01T17:57:10;8.00;99.90
48988;DHT22;34799;51.440;-2.534;2023-03-01T17:59:37;8.00;99.90
48988;DHT22;34799;51.440;-2.534;2023-03-01T18:02:16;7.50;99.90
48988;DHT22;34799;51.440;-2.534;2023-03-01T18:04:46;8.20;99.90